createdAt,value
2023-04-13T00:01:11.383Z,95.77
2023-04-13T00:03:39.486Z,95.82
2023-04-13T00:06:11.110Z,95.65
2023-04-13T00:08:38.644Z,95.26
2023-04-13T00:11:07.655Z,95.45
2023-04-13T00:13:41.005Z,95.05
2023-04-13T00:16:10.366Z,94.73
2023-04-13T00:18:37.325Z,94.38
2023-04-13T00:21:04.470Z,94.83
2023-04-13T00:23:32.090Z,93.93
2023-04-13T00:26:01.520Z,94.38
2023-04-13T00:28:30.060Z,94.88
2023-04-13T00:30:57.327Z,94.69
2023-04-13T00:33:24.334Z,93.86
2023-04-13T00:35:51.797Z,93.21
2023-04-13T00:38:18.810Z,91.92
2023-04-13T00:40:45.902Z,93.19
2023-04-13T00:43:12.847Z,93.60
2023-04-13T00:45:40.089Z,91.83
2023-04-13T00:48:11.033Z,87.78
2023-04-13T00:50:39.536Z,86.75
2023-04-13T00:53:10.482Z,85.98
2023-04-13T00:55:42.094Z,88.23
2023-04-13T00:58:09.383Z,89.95
2023-04-13T01:00:43.066Z,89.18
2023-04-13T01:03:10.939Z,87.98
2023-04-13T01:06:02.131Z,88.42
2023-04-13T01:08:58.863Z,87.41
2023-04-13T01:11:39.604Z,86.87
2023-04-13T01:14:13.733Z,86.86
2023-04-13T01:16:44.495Z,87.05
2023-04-13T01:19:23.129Z,87.06
2023-04-13T01:21:54.432Z,87.14
2023-04-13T01:24:48.978Z,88.86
2023-04-13T01:27:47.621Z,89.13
2023-04-13T01:30:23.526Z,89.53
2023-04-13T01:32:55.072Z,89.05
2023-04-13T01:35:23.385Z,88.95
2023-04-13T01:37:51.712Z,88.85
2023-04-13T01:40:23.051Z,88.84
2023-04-13T01:42:49.907Z,88.69
2023-04-13T01:45:30.211Z,87.94
2023-04-13T01:48:08.679Z,88.18
2023-04-13T01:50:41.454Z,87.96
2023-04-13T01:53:15.457Z,88.89
2023-04-13T01:55:44.727Z,88.11
2023-04-13T01:58:13.672Z,87.37
2023-04-13T02:00:42.351Z,87.43
2023-04-13T02:03:10.758Z,87.29
2023-04-13T02:05:40.608Z,87.50
2023-04-13T02:08:09.251Z,86.35
2023-04-13T02:10:37.779Z,86.52
2023-04-13T02:13:04.774Z,87.17
2023-04-13T02:15:35.659Z,86.02
2023-04-13T02:18:04.675Z,86.57
2023-04-13T02:20:45.869Z,87.04
2023-04-13T02:23:16.423Z,86.82
2023-04-13T02:25:44.884Z,87.09
2023-04-13T02:28:13.678Z,87.51
2023-04-13T02:30:42.497Z,87.67
2023-04-13T02:33:09.677Z,88.26
2023-04-13T02:35:38.847Z,88.68
2023-04-13T02:38:06.851Z,89.09
2023-04-13T02:40:33.807Z,89.38
2023-04-13T02:43:00.785Z,89.66
2023-04-13T02:45:28.569Z,89.51
2023-04-13T02:47:56.819Z,88.89
2023-04-13T02:50:23.729Z,89.75
2023-04-13T02:52:50.643Z,88.76
2023-04-13T02:55:18.025Z,88.30
2023-04-13T02:57:44.931Z,87.48
2023-04-13T03:00:13.302Z,86.78
2023-04-13T03:02:42.555Z,86.40
2023-04-13T03:05:10.002Z,87.01
2023-04-13T03:07:36.987Z,87.01
2023-04-13T03:10:05.565Z,86.17
2023-04-13T03:12:35.306Z,86.19
2023-04-13T03:15:04.821Z,86.07
2023-04-13T03:17:31.771Z,86.08
2023-04-13T03:19:59.765Z,85.90
2023-04-13T03:22:30.556Z,85.87
2023-04-13T03:24:57.521Z,86.08
2023-04-13T03:27:24.535Z,85.70
2023-04-13T03:29:51.474Z,85.49
2023-04-13T03:32:18.401Z,85.36
2023-04-13T03:34:45.377Z,86.31
2023-04-13T03:37:13.488Z,85.87
2023-04-13T03:39:40.816Z,86.14
2023-04-13T03:42:07.821Z,85.84
2023-04-13T03:44:34.750Z,85.05
2023-04-13T03:47:01.744Z,85.32
2023-04-13T03:49:30.454Z,85.31
2023-04-13T03:51:58.920Z,86.33
2023-04-13T03:54:26.172Z,87.05
2023-04-13T03:56:53.340Z,86.06
2023-04-13T03:59:20.441Z,87.04
2023-04-13T04:01:47.354Z,85.79
2023-04-13T04:04:14.381Z,86.92
2023-04-13T04:06:41.488Z,87.54
2023-04-13T04:09:09.475Z,88.23
2023-04-13T04:11:36.658Z,87.68
2023-04-13T04:14:03.741Z,87.34
2023-04-13T04:16:30.751Z,87.78
2023-04-13T04:18:57.764Z,88.38
2023-04-13T04:21:34.338Z,88.44
2023-04-13T04:24:06.352Z,88.54
2023-04-13T04:26:33.428Z,87.29
2023-04-13T04:29:03.050Z,87.70
2023-04-13T04:31:36.749Z,88.51
2023-04-13T04:34:04.629Z,87.79
2023-04-13T04:36:31.779Z,88.11
2023-04-13T04:39:02.615Z,88.21
2023-04-13T04:41:31.245Z,88.41
2023-04-13T04:44:02.773Z,88.35
2023-04-13T04:46:29.930Z,88.75
2023-04-13T04:49:00.811Z,89.59
2023-04-13T04:51:28.700Z,89.63
2023-04-13T04:53:57.946Z,89.22
2023-04-13T04:56:26.756Z,89.04
2023-04-13T04:58:53.632Z,89.58
2023-04-13T05:01:26.651Z,89.94
2023-04-13T05:03:53.956Z,89.08
2023-04-13T05:06:20.893Z,89.34
2023-04-13T05:08:48.001Z,89.13
2023-04-13T05:11:14.989Z,89.68
2023-04-13T05:13:42.052Z,89.96
2023-04-13T05:16:10.699Z,88.87
2023-04-13T05:18:46.083Z,89.36
2023-04-13T05:21:14.635Z,89.18
2023-04-13T05:23:42.619Z,87.57
2023-04-13T05:26:12.369Z,87.94
2023-04-13T05:28:39.674Z,88.50
2023-04-13T05:31:08.970Z,87.54
2023-04-13T05:33:36.080Z,86.68
2023-04-13T05:36:04.550Z,87.80
2023-04-13T05:38:31.869Z,85.99
2023-04-13T05:40:59.513Z,86.23
2023-04-13T05:43:26.978Z,85.77
2023-04-13T05:45:54.119Z,84.82
2023-04-13T05:48:21.518Z,84.31
2023-04-13T05:50:48.493Z,85.09
2023-04-13T05:53:15.657Z,83.99
2023-04-13T05:55:45.613Z,84.25
2023-04-13T05:58:14.668Z,82.62
2023-04-13T06:00:43.052Z,83.79
2023-04-13T06:03:11.100Z,83.96
2023-04-13T06:05:38.937Z,83.11
2023-04-13T06:08:05.880Z,83.17
2023-04-13T06:10:32.886Z,82.24
2023-04-13T06:12:59.894Z,82.56
2023-04-13T06:15:27.383Z,82.36
2023-04-13T06:17:54.347Z,82.30
2023-04-13T06:20:21.680Z,83.10
2023-04-13T06:22:49.312Z,83.48
2023-04-13T06:25:16.647Z,82.36
2023-04-13T06:27:44.267Z,82.80
2023-04-13T06:30:12.190Z,81.27
2023-04-13T06:32:39.467Z,82.20
2023-04-13T06:35:07.104Z,82.32
2023-04-13T06:37:38.127Z,81.71
2023-04-13T06:40:12.554Z,83.08
2023-04-13T06:42:41.505Z,84.00
2023-04-13T06:45:12.792Z,85.80
2023-04-13T06:47:43.547Z,85.59
2023-04-13T06:50:14.041Z,88.19
2023-04-13T06:52:47.343Z,87.07
2023-04-13T06:55:14.962Z,87.67
2023-04-13T06:57:41.944Z,88.02
2023-04-13T07:00:22.289Z,87.36
2023-04-13T07:02:55.983Z,89.46
2023-04-13T07:05:22.991Z,88.76
2023-04-13T07:07:49.860Z,89.28
2023-04-13T07:10:16.833Z,90.24
2023-04-13T07:12:43.878Z,90.85
2023-04-13T07:15:10.887Z,88.54
2023-04-13T07:17:37.883Z,88.32
2023-04-13T07:20:07.306Z,89.79
2023-04-13T07:22:35.436Z,89.02
2023-04-13T07:25:03.028Z,89.44
2023-04-13T07:27:29.960Z,89.00
2023-04-13T07:29:57.269Z,89.62
2023-04-13T07:32:30.183Z,90.06
2023-04-13T07:35:01.956Z,91.26
2023-04-13T07:37:29.737Z,92.54
2023-04-13T07:39:56.766Z,93.69
2023-04-13T07:42:25.135Z,93.90
2023-04-13T07:44:56.307Z,93.60
2023-04-13T07:47:23.322Z,95.55
2023-04-13T07:49:50.268Z,94.80
2023-04-13T07:52:17.417Z,94.46
2023-04-13T07:54:44.581Z,95.47
2023-04-13T07:57:11.509Z,96.53
2023-04-13T07:59:38.413Z,96.98
2023-04-13T08:02:05.764Z,98.74
2023-04-13T08:04:33.725Z,99.44
2023-04-13T08:07:05.008Z,99.71
2023-04-13T08:09:36.464Z,99.72
2023-04-13T08:12:04.053Z,99.22
2023-04-13T08:14:31.062Z,100.00
2023-04-13T08:16:58.372Z,100.00
2023-04-13T08:19:25.474Z,100.00
2023-04-13T08:21:52.480Z,98.04
2023-04-13T08:24:22.611Z,100.00
2023-04-13T08:26:49.584Z,95.71
2023-04-13T08:29:16.473Z,94.54
2023-04-13T08:31:43.364Z,92.83
2023-04-13T08:34:11.631Z,96.43
2023-04-13T08:36:38.631Z,96.93
2023-04-13T08:39:06.114Z,95.65
2023-04-13T08:41:36.361Z,94.52
2023-04-13T08:44:06.932Z,93.87
2023-04-13T08:46:34.608Z,92.71
2023-04-13T08:49:03.218Z,92.86
2023-04-13T08:51:34.354Z,90.69
2023-04-13T08:54:02.609Z,92.64
2023-04-13T08:56:44.340Z,91.88
2023-04-13T08:59:15.544Z,91.73
2023-04-13T09:01:46.639Z,90.56
2023-04-13T09:04:18.187Z,90.75
2023-04-13T09:06:48.014Z,88.16
2023-04-13T09:09:15.777Z,89.03
2023-04-13T09:11:43.674Z,91.89
2023-04-13T09:14:10.889Z,90.99
2023-04-13T09:16:44.336Z,89.50
2023-04-13T09:19:12.892Z,89.76
2023-04-13T09:21:44.811Z,90.94
2023-04-13T09:24:12.800Z,89.21
2023-04-13T09:26:50.267Z,87.87
2023-04-13T09:29:19.604Z,87.99
2023-04-13T09:31:47.721Z,86.44
2023-04-13T09:34:26.829Z,87.17
2023-04-13T09:36:56.291Z,88.64
2023-04-13T09:39:27.902Z,90.41
2023-04-13T09:41:55.810Z,87.89
2023-04-13T09:44:24.761Z,88.37
2023-04-13T09:47:07.742Z,88.89
2023-04-13T09:49:42.980Z,89.35
2023-04-13T09:52:25.462Z,88.98
2023-04-13T09:54:54.326Z,90.04
2023-04-13T09:57:30.404Z,85.78
2023-04-13T10:00:01.392Z,84.90
2023-04-13T10:02:29.257Z,85.04
2023-04-13T10:04:57.514Z,86.00
2023-04-13T10:07:29.940Z,85.16
2023-04-13T10:09:56.833Z,85.48
2023-04-13T10:12:26.937Z,83.55
2023-04-13T10:15:30.559Z,85.06
2023-04-13T10:18:29.615Z,81.45
2023-04-13T10:20:59.529Z,83.29
2023-04-13T10:23:29.563Z,82.46
2023-04-13T10:25:58.333Z,83.39
2023-04-13T10:28:27.244Z,82.92
2023-04-13T10:30:54.881Z,83.02
2023-04-13T10:33:21.990Z,84.31
2023-04-13T10:36:00.117Z,83.49
2023-04-13T10:38:27.657Z,81.67
2023-04-13T10:40:54.668Z,81.63
2023-04-13T10:43:35.078Z,81.50
2023-04-13T10:46:13.829Z,81.69
2023-04-13T10:48:54.220Z,80.94
2023-04-13T10:51:21.122Z,82.21
2023-04-13T10:53:48.026Z,82.87
2023-04-13T10:56:19.235Z,82.86
2023-04-13T10:58:53.521Z,82.63
2023-04-13T11:01:20.808Z,84.12
2023-04-13T11:04:03.243Z,83.33
2023-04-13T11:06:39.090Z,84.61
2023-04-13T11:09:07.386Z,87.01
2023-04-13T11:11:37.362Z,87.10
2023-04-13T11:14:04.521Z,88.23
2023-04-13T11:16:31.748Z,87.91
2023-04-13T11:19:05.554Z,86.75
2023-04-13T11:21:32.791Z,87.71
2023-04-13T11:24:02.509Z,88.52
2023-04-13T11:26:42.993Z,89.95
2023-04-13T11:29:19.066Z,85.71
2023-04-13T11:31:46.759Z,83.88
2023-04-13T11:34:25.730Z,83.61
2023-04-13T11:37:05.160Z,84.28
2023-04-13T11:39:36.234Z,82.06
2023-04-13T11:42:09.772Z,79.86
2023-04-13T11:44:37.834Z,82.22
2023-04-13T11:47:06.512Z,82.51
2023-04-13T11:49:33.958Z,81.13
2023-04-13T11:52:02.307Z,79.35
2023-04-13T11:54:30.516Z,79.25
2023-04-13T11:56:57.762Z,78.56
2023-04-13T11:59:26.403Z,77.91
2023-04-13T12:02:02.350Z,77.03
2023-04-13T12:04:39.573Z,74.91
2023-04-13T12:07:14.456Z,75.14
2023-04-13T12:20:04.640Z,70.15
2023-04-13T12:22:52.266Z,70.21
2023-04-13T12:25:25.121Z,71.24
2023-04-13T12:27:54.037Z,72.35
2023-04-13T12:30:23.186Z,71.15
2023-04-13T12:32:56.316Z,70.40
2023-04-13T12:35:23.722Z,70.22
2023-04-13T12:37:50.670Z,70.46
2023-04-13T12:40:18.301Z,71.49
2023-04-13T12:42:49.364Z,69.05
2023-04-13T12:45:17.560Z,70.13
2023-04-13T12:47:44.583Z,69.15
2023-04-13T12:50:12.688Z,67.01
2023-04-13T12:52:42.927Z,69.90
2023-04-13T12:55:11.205Z,66.36
2023-04-13T12:57:39.735Z,67.32
2023-04-13T13:00:11.351Z,66.38
2023-04-13T13:02:38.840Z,65.57
2023-04-13T13:05:06.634Z,65.47
2023-04-13T13:07:33.617Z,64.96
2023-04-13T13:10:01.925Z,65.36
2023-04-13T13:12:30.268Z,65.97
2023-04-13T13:14:58.590Z,65.91
2023-04-13T13:17:25.668Z,66.54
2023-04-13T13:19:52.955Z,65.02
2023-04-13T13:22:20.463Z,67.43
2023-04-13T13:24:47.510Z,67.36
2023-04-13T13:27:48.652Z,65.97
2023-04-13T13:30:04.166Z,65.15
2023-04-13T13:32:31.544Z,65.76
2023-04-13T13:34:58.693Z,64.02
2023-04-13T13:37:26.356Z,64.32
2023-04-13T13:39:53.951Z,64.77
2023-04-13T13:42:21.132Z,66.57
2023-04-13T13:44:48.118Z,68.35
2023-04-13T13:47:15.394Z,67.96
2023-04-13T13:49:42.428Z,68.11
2023-04-13T13:52:09.409Z,64.67
2023-04-13T13:54:36.655Z,67.07
2023-04-13T13:57:04.539Z,64.64
2023-04-13T13:59:31.447Z,64.22
2023-04-13T14:01:59.897Z,62.69
2023-04-13T14:04:27.062Z,62.51
2023-04-13T14:06:54.034Z,60.71
2023-04-13T14:09:20.944Z,62.65
2023-04-13T14:11:48.372Z,62.60
2023-04-13T14:14:21.898Z,61.71
2023-04-13T14:16:49.427Z,61.26
2023-04-13T14:19:18.125Z,57.95
2023-04-13T14:21:45.269Z,57.50
2023-04-13T14:24:12.355Z,56.99
2023-04-13T14:26:39.834Z,56.32
2023-04-13T14:29:08.845Z,58.06
2023-04-13T14:31:35.891Z,56.41
2023-04-13T14:34:02.802Z,57.26
2023-04-13T14:36:29.692Z,58.14
2023-04-13T14:39:00.508Z,59.25
2023-04-13T14:41:27.744Z,58.09
2023-04-13T14:43:54.722Z,56.33
2023-04-13T14:46:21.723Z,56.46
2023-04-13T14:48:48.635Z,57.30
2023-04-13T14:51:18.627Z,57.53
2023-04-13T14:53:45.985Z,55.28
2023-04-13T14:56:12.949Z,56.87
2023-04-13T14:58:39.902Z,58.78
2023-04-13T15:01:19.565Z,58.82
2023-04-13T15:03:47.312Z,59.01
2023-04-13T15:06:14.989Z,58.22
2023-04-13T15:08:42.045Z,59.80
2023-04-13T15:11:09.176Z,58.82
2023-04-13T15:13:38.121Z,59.25
2023-04-13T15:16:07.815Z,58.79
2023-04-13T15:18:34.939Z,59.17
2023-04-13T15:21:03.351Z,58.61
2023-04-13T15:23:30.826Z,59.31
2023-04-13T15:25:58.074Z,59.54
2023-04-13T15:28:25.079Z,56.89
2023-04-13T15:30:52.836Z,55.00
2023-04-13T15:33:19.947Z,57.33
2023-04-13T15:35:47.055Z,55.63
2023-04-13T15:38:13.922Z,55.95
2023-04-13T15:40:42.112Z,56.76
2023-04-13T15:43:09.064Z,57.41
2023-04-13T15:45:36.084Z,54.12
2023-04-13T15:48:03.398Z,55.25
2023-04-13T15:50:30.606Z,55.89
2023-04-13T15:52:58.072Z,55.43
2023-04-13T15:55:25.130Z,54.75
2023-04-13T15:57:53.698Z,53.05
2023-04-13T16:00:21.075Z,55.73
2023-04-13T16:02:48.210Z,52.40
2023-04-13T16:05:15.448Z,52.73
2023-04-13T16:07:42.324Z,52.26
2023-04-13T16:10:16.691Z,52.61
2023-04-13T16:12:44.725Z,53.32
2023-04-13T16:15:12.714Z,52.76
2023-04-13T16:17:43.765Z,52.90
2023-04-13T16:20:14.130Z,53.84
2023-04-13T16:22:42.885Z,53.38
2023-04-13T16:25:11.448Z,52.97
2023-04-13T16:27:38.848Z,54.54
2023-04-13T16:30:08.334Z,54.24
2023-04-13T16:32:35.582Z,53.80
2023-04-13T16:35:02.650Z,53.49
2023-04-13T16:37:29.544Z,53.82
2023-04-13T16:39:56.485Z,54.70
2023-04-13T16:42:23.378Z,54.59
2023-04-13T16:44:50.386Z,53.73
2023-04-13T16:47:18.238Z,55.36
2023-04-13T16:49:45.091Z,55.03
2023-04-13T16:52:12.651Z,55.68
2023-04-13T16:54:43.742Z,54.44
2023-04-13T16:57:12.267Z,55.97
2023-04-13T16:59:39.414Z,59.32
2023-04-13T17:02:13.180Z,57.33
2023-04-13T17:04:45.212Z,58.72
2023-04-13T17:07:12.205Z,59.42
2023-04-13T17:09:39.055Z,60.59
2023-04-13T17:12:06.381Z,62.11
2023-04-13T17:14:33.352Z,63.59
2023-04-13T17:17:00.300Z,66.32
2023-04-13T17:19:27.193Z,66.93
2023-04-13T17:21:54.171Z,67.23
2023-04-13T17:24:21.261Z,65.99
2023-04-13T17:26:48.643Z,66.59
2023-04-13T17:29:15.808Z,67.88
2023-04-13T17:31:42.765Z,68.87
2023-04-13T17:34:09.682Z,70.75
2023-04-13T17:36:36.570Z,69.95
2023-04-13T17:39:05.692Z,71.57
2023-04-13T17:41:34.107Z,75.40
2023-04-13T17:44:01.964Z,74.97
2023-04-13T17:46:29.897Z,70.66
2023-04-13T17:48:57.402Z,67.25
2023-04-13T17:51:25.132Z,68.71
2023-04-13T17:53:52.152Z,67.39
2023-04-13T17:56:19.273Z,68.27
2023-04-13T17:58:46.286Z,72.86
2023-04-13T18:01:13.402Z,74.90
2023-04-13T18:03:40.827Z,76.25
2023-04-13T18:06:07.947Z,78.55
2023-04-13T18:08:34.927Z,79.78
2023-04-13T18:11:02.308Z,79.66
2023-04-13T18:13:30.051Z,80.11
2023-04-13T18:15:57.084Z,80.84
2023-04-13T18:18:24.475Z,83.10
2023-04-13T18:20:52.540Z,85.03
2023-04-13T18:23:24.134Z,89.38
2023-04-13T18:25:52.130Z,94.65
2023-04-13T18:28:19.180Z,94.90
2023-04-13T18:30:46.191Z,95.00
2023-04-13T18:33:13.470Z,96.76
2023-04-13T18:35:46.918Z,95.01
2023-04-13T18:38:13.947Z,97.21
2023-04-13T18:40:41.131Z,99.15
2023-04-13T18:43:08.070Z,100.00
2023-04-13T18:45:35.079Z,100.00
2023-04-13T18:48:02.563Z,100.00
2023-04-13T18:50:29.558Z,100.00
2023-04-13T18:52:56.796Z,100.00
2023-04-13T18:55:25.686Z,100.00
2023-04-13T18:57:52.799Z,100.00
2023-04-13T19:00:20.511Z,100.00
2023-04-13T19:02:54.371Z,100.00
2023-04-13T19:05:21.682Z,100.00
2023-04-13T19:08:00.297Z,100.00
2023-04-13T19:10:28.348Z,100.00
2023-04-13T19:12:56.430Z,100.00
2023-04-13T19:15:24.230Z,100.00
2023-04-13T19:17:52.235Z,100.00
2023-04-13T19:20:22.926Z,100.00
2023-04-13T19:22:51.153Z,100.00
2023-04-13T19:25:18.071Z,100.00
2023-04-13T19:27:45.875Z,100.00
2023-04-13T19:30:14.983Z,100.00
2023-04-13T19:32:44.828Z,100.00
2023-04-13T19:35:12.843Z,100.00
2023-04-13T19:37:41.812Z,100.00
2023-04-13T19:40:09.939Z,100.00
2023-04-13T19:42:37.651Z,100.00
2023-04-13T19:45:05.121Z,100.00
2023-04-13T19:47:32.168Z,100.00
2023-04-13T19:49:59.752Z,100.00
2023-04-13T19:52:26.725Z,100.00
2023-04-13T19:54:53.822Z,100.00
2023-04-13T19:57:20.744Z,100.00
2023-04-13T19:59:47.730Z,100.00
2023-04-13T20:02:14.996Z,100.00
2023-04-13T20:04:42.269Z,100.00
2023-04-13T20:07:09.385Z,100.00
2023-04-13T20:09:36.533Z,100.00
2023-04-13T20:12:05.360Z,100.00
2023-04-13T20:14:32.299Z,100.00
2023-04-13T20:16:59.347Z,100.00
2023-04-13T20:19:26.612Z,100.00
2023-04-13T20:21:54.318Z,100.00
2023-04-13T20:24:21.240Z,100.00
2023-04-13T20:26:48.285Z,100.00
2023-04-13T20:29:19.037Z,100.00
2023-04-13T20:31:45.984Z,100.00
2023-04-13T20:34:13.581Z,100.00
2023-04-13T20:36:40.548Z,100.00
2023-04-13T20:39:09.701Z,100.00
2023-04-13T20:41:36.777Z,100.00
2023-04-13T20:44:04.100Z,100.00
2023-04-13T20:46:34.731Z,100.00
2023-04-13T20:49:04.316Z,100.00
2023-04-13T20:51:33.021Z,100.00
2023-04-13T20:54:01.619Z,100.00
2023-04-13T20:56:29.938Z,100.00
2023-04-13T20:58:58.029Z,100.00
2023-04-13T21:01:25.598Z,100.00
2023-04-13T21:03:53.043Z,100.00
2023-04-13T21:06:22.905Z,100.00
2023-04-13T21:08:49.946Z,100.00
2023-04-13T21:11:16.897Z,100.00
2023-04-13T21:13:43.870Z,100.00
2023-04-13T21:16:12.236Z,100.00
2023-04-13T21:18:41.546Z,100.00
2023-04-13T21:21:08.815Z,100.00
2023-04-13T21:23:38.848Z,100.00
2023-04-13T21:26:07.131Z,100.00
2023-04-13T21:28:34.186Z,100.00
2023-04-13T21:31:01.206Z,100.00
2023-04-13T21:33:28.518Z,100.00
2023-04-13T21:35:55.506Z,100.00
2023-04-13T21:38:22.415Z,100.00
2023-04-13T21:40:49.299Z,100.00
2023-04-13T21:43:16.920Z,100.00
2023-04-13T21:45:43.934Z,100.00
2023-04-13T21:48:10.949Z,100.00
2023-04-13T21:50:37.904Z,100.00
2023-04-13T21:53:04.794Z,99.99
2023-04-13T21:55:31.693Z,100.00
2023-04-13T21:57:58.583Z,100.00
2023-04-13T22:00:25.502Z,100.00
2023-04-13T22:02:53.682Z,100.00
2023-04-13T22:05:20.788Z,100.00
2023-04-13T22:07:47.704Z,100.00
2023-04-13T22:10:14.620Z,100.00
2023-04-13T22:12:41.608Z,100.00
2023-04-13T22:15:09.109Z,100.00
2023-04-13T22:17:36.797Z,100.00
2023-04-13T22:20:04.670Z,100.00
2023-04-13T22:22:31.562Z,100.00
2023-04-13T22:24:58.540Z,100.00
2023-04-13T22:27:26.202Z,100.00
2023-04-13T22:29:56.344Z,100.00
2023-04-13T22:32:23.468Z,100.00
2023-04-13T22:34:50.701Z,100.00
2023-04-13T22:37:17.887Z,100.00
2023-04-13T22:39:44.805Z,99.82
2023-04-13T22:42:12.130Z,99.91
2023-04-13T22:44:39.025Z,100.00
2023-04-13T22:47:06.008Z,100.00
2023-04-13T22:49:32.917Z,100.00
2023-04-13T22:52:00.530Z,100.00
2023-04-13T22:54:27.509Z,100.00
2023-04-13T22:56:55.509Z,100.00
2023-04-13T22:59:22.525Z,100.00
2023-04-13T23:01:49.636Z,100.00
2023-04-13T23:04:16.776Z,100.00
2023-04-13T23:06:43.754Z,100.00
2023-04-13T23:09:10.825Z,100.00
2023-04-13T23:11:37.874Z,100.00
2023-04-13T23:14:06.646Z,100.00
2023-04-13T23:16:34.904Z,100.00
2023-04-13T23:19:02.274Z,100.00
2023-04-13T23:21:29.777Z,100.00
2023-04-13T23:23:57.107Z,100.00
2023-04-13T23:26:24.108Z,100.00
2023-04-13T23:28:51.089Z,100.00
2023-04-13T23:31:18.254Z,100.00
2023-04-13T23:33:45.398Z,100.00
2023-04-13T23:36:12.561Z,100.00
2023-04-13T23:38:39.584Z,100.00
2023-04-13T23:41:06.489Z,100.00
2023-04-13T23:43:33.414Z,99.94
2023-04-13T23:46:00.334Z,99.50
2023-04-13T23:48:27.422Z,100.00
2023-04-13T23:50:54.527Z,99.02
2023-04-13T23:53:21.464Z,97.70
2023-04-13T23:55:48.351Z,99.21
2023-04-13T23:58:15.598Z,100.00
